Time;durP1;ratioP1;P1;durP2;ratioP2;P2;SDS_P1;SDS_P2;PMS_P1;PMS_P2;Temp;Humidity;BMP_temperature;BMP_pressure;BME280_temperature;BME280_humidity;BME280_pressure;Samples;Min_cycle;Max_cycle;Signal;HPM_P1;HPM_P2
2022/12/11 00:01:59;;;;;;;84.07;25.38;;;-0.50;99.90;;;;;;5089430;28;20964;-74
2022/12/11 00:04:25;;;;;;;89.28;26.60;;;-0.60;99.90;;;;;;5088694;28;21232;-74
2022/12/11 00:06:51;;;;;;;95.47;26.58;;;-0.60;99.90;;;;;;5089462;28;20429;-74
2022/12/11 00:09:18;;;;;;;107.00;27.15;;;-0.60;99.90;;;;;;5088327;28;20508;-74
2022/12/11 00:11:44;;;;;;;100.68;27.83;;;-0.60;99.90;;;;;;5089724;28;20405;-74
2022/12/11 00:14:10;;;;;;;109.35;28.10;;;-0.60;99.90;;;;;;5076437;28;20957;-74
2022/12/11 00:16:36;;;;;;;96.28;26.73;;;-0.60;99.90;;;;;;5090118;28;20455;-74
2022/12/11 00:19:02;;;;;;;94.88;27.15;;;-0.60;99.90;;;;;;5089149;28;20818;-74
2022/12/11 00:21:28;;;;;;;104.55;27.42;;;-0.60;99.90;;;;;;5089643;28;20980;-74
2022/12/11 00:23:54;;;;;;;87.90;25.33;;;-0.60;99.90;;;;;;5075873;28;20486;-74
2022/12/11 00:26:20;;;;;;;98.88;27.45;;;-0.60;99.90;;;;;;5087210;28;20845;-74
2022/12/11 00:28:45;;;;;;;89.50;27.00;;;-0.60;99.90;;;;;;5077621;28;20423;-74
2022/12/11 00:31:16;;;;;;;90.63;27.00;;;-0.60;99.90;;;;;;5089524;28;20402;-74
2022/12/11 00:33:43;;;;;;;92.60;26.23;;;-0.60;99.90;;;;;;5088628;28;20406;-74
2022/12/11 00:36:14;;;;;;;85.30;26.35;;;-0.60;99.90;;;;;;5089860;28;20403;-74
2022/12/11 00:38:41;;;;;;;84.63;25.45;;;-0.60;99.90;;;;;;5078997;28;21123;-74
2022/12/11 00:41:07;;;;;;;81.25;25.30;;;-0.70;99.90;;;;;;5089588;28;20398;-74
2022/12/11 00:43:33;;;;;;;95.00;26.50;;;-0.70;99.90;;;;;;5074822;28;20986;-74
2022/12/11 00:45:58;;;;;;;87.13;27.13;;;-0.70;99.90;;;;;;5089464;28;20390;-74
2022/12/11 00:48:24;;;;;;;81.03;25.47;;;-0.70;99.90;;;;;;5088631;28;20405;-74
2022/12/11 00:50:50;;;;;;;82.45;26.25;;;-0.70;99.90;;;;;;5084698;28;20918;-74
2022/12/11 00:53:15;;;;;;;100.07;26.33;;;-0.70;99.90;;;;;;5083419;28;20402;-74
2022/12/11 00:55:42;;;;;;;96.68;26.73;;;-0.70;99.90;;;;;;5081859;28;20400;-74
2022/12/11 00:58:09;;;;;;;82.43;24.98;;;-0.70;99.90;;;;;;5083533;28;20416;-74
2022/12/11 01:00:35;;;;;;;91.13;25.67;;;-0.70;99.90;;;;;;5082055;28;20965;-74
2022/12/11 01:03:01;;;;;;;78.73;24.80;;;-0.70;99.90;;;;;;5070202;28;20523;-74
2022/12/11 01:05:26;;;;;;;89.20;25.37;;;-0.70;99.90;;;;;;5089181;28;20551;-74
2022/12/11 01:07:52;;;;;;;94.27;26.77;;;-0.70;99.90;;;;;;5075821;28;20537;-74
2022/12/11 01:10:23;;;;;;;88.60;26.48;;;-0.70;99.90;;;;;;5088584;28;20479;-74
2022/12/11 01:13:00;;;;;;;98.00;27.27;;;-0.70;99.90;;;;;;5087547;28;20513;-74
2022/12/11 01:15:28;;;;;;;79.35;25.83;;;-0.70;99.90;;;;;;5080331;28;20404;-74
2022/12/11 01:17:54;;;;;;;75.15;24.67;;;-0.70;99.90;;;;;;5082845;28;20412;-74
2022/12/11 01:20:22;;;;;;;83.15;25.90;;;-0.70;99.90;;;;;;5088826;28;20822;-74
2022/12/11 01:22:50;;;;;;;86.53;26.57;;;-0.70;99.90;;;;;;5076393;28;20673;-74
2022/12/11 01:25:16;;;;;;;99.43;27.42;;;-0.70;99.90;;;;;;5070478;28;20398;-74
2022/12/11 01:27:41;;;;;;;94.13;27.63;;;-0.70;99.90;;;;;;5087371;28;20419;-74
2022/12/11 01:30:08;;;;;;;91.67;27.60;;;-0.70;99.90;;;;;;5097735;28;20428;-74
2022/12/11 01:32:34;;;;;;;90.72;26.30;;;-0.70;99.90;;;;;;5091008;28;20827;-74
2022/12/11 01:35:05;;;;;;;89.85;27.48;;;-0.60;99.90;;;;;;5086845;28;20487;-74
2022/12/11 01:37:32;;;;;;;79.00;26.50;;;-0.60;99.90;;;;;;5069787;28;20414;-74
2022/12/11 01:39:59;;;;;;;85.93;26.60;;;-0.60;99.90;;;;;;5087404;28;20414;-74
2022/12/11 01:42:25;;;;;;;93.63;26.50;;;-0.60;99.90;;;;;;5088168;28;20484;-74
2022/12/11 01:44:50;;;;;;;87.90;26.38;;;-0.60;99.90;;;;;;5087873;28;20394;-74
2022/12/11 01:47:16;;;;;;;90.70;26.40;;;-0.50;99.90;;;;;;5083361;28;20495;-74
2022/12/11 01:49:42;;;;;;;89.10;27.15;;;-0.50;99.90;;;;;;5079835;28;20480;-74
2022/12/11 01:52:20;;;;;;;83.53;25.55;;;-0.50;99.90;;;;;;5087417;28;20399;-74
2022/12/11 01:54:47;;;;;;;76.70;24.97;;;-0.50;99.90;;;;;;5087234;28;20962;-74
2022/12/11 01:57:14;;;;;;;73.73;22.30;;;-0.50;99.90;;;;;;5087574;28;20499;-74
2022/12/11 01:59:44;;;;;;;69.15;22.50;;;-0.50;99.90;;;;;;5083752;28;20414;-74
2022/12/11 02:02:19;;;;;;;67.55;21.88;;;-0.50;99.90;;;;;;5081018;28;20963;-74
2022/12/11 02:04:47;;;;;;;70.40;21.38;;;-0.40;99.90;;;;;;5068076;28;20412;-74
2022/12/11 02:07:12;;;;;;;71.78;23.70;;;-0.40;99.90;;;;;;5068697;28;20483;-74
2022/12/11 02:09:41;;;;;;;73.47;24.10;;;-0.40;99.90;;;;;;5082234;28;20509;-74
2022/12/11 02:12:25;;;;;;;76.22;23.67;;;-0.40;99.90;;;;;;5085692;28;20429;-74
2022/12/11 02:14:54;;;;;;;67.43;22.35;;;-0.40;99.90;;;;;;5080040;28;20418;-74
2022/12/11 02:17:34;;;;;;;70.38;22.88;;;-0.40;99.90;;;;;;5079332;28;21583;-74
2022/12/11 02:20:06;;;;;;;68.10;23.05;;;-0.40;99.90;;;;;;5072255;28;20400;-74
2022/12/11 02:23:03;;;;;;;66.15;21.40;;;-0.40;99.90;;;;;;5087045;28;20927;-74
2022/12/11 02:25:50;;;;;;;68.53;21.80;;;-0.30;99.90;;;;;;5087047;28;20418;-74
2022/12/11 02:28:24;;;;;;;63.40;22.00;;;-0.30;99.90;;;;;;5076475;28;20462;-75
2022/12/11 02:31:01;;;;;;;78.53;23.27;;;-0.30;99.90;;;;;;5070750;28;20404;-75
2022/12/11 02:33:36;;;;;;;63.42;21.65;;;-0.30;99.90;;;;;;5084559;28;20489;-75
2022/12/11 02:36:04;;;;;;;59.67;21.63;;;-0.30;99.90;;;;;;5073054;28;20398;-75
2022/12/11 02:38:34;;;;;;;65.25;20.73;;;-0.20;99.90;;;;;;5087551;28;20405;-74
2022/12/11 02:41:01;;;;;;;65.72;21.10;;;-0.20;99.90;;;;;;5069435;28;20392;-75
2022/12/11 02:43:30;;;;;;;67.05;21.08;;;-0.20;99.90;;;;;;5075666;28;21031;-75
2022/12/11 02:45:57;;;;;;;69.95;22.90;;;-0.20;99.90;;;;;;5085825;28;20413;-75
2022/12/11 02:48:23;;;;;;;72.93;22.10;;;-0.20;99.90;;;;;;5077503;28;20455;-75
2022/12/11 02:50:53;;;;;;;74.17;22.10;;;-0.20;99.90;;;;;;5090956;28;20803;-75
2022/12/11 02:53:22;;;;;;;67.43;22.27;;;-0.20;99.90;;;;;;5091588;28;20402;-75
2022/12/11 02:55:53;;;;;;;66.93;21.27;;;-0.10;99.90;;;;;;5077620;28;20798;-75
2022/12/11 02:58:26;;;;;;;68.50;20.70;;;-0.10;99.90;;;;;;5091699;28;20397;-75
2022/12/11 03:00:52;;;;;;;69.70;21.08;;;-0.10;99.90;;;;;;5091514;28;20463;-75
2022/12/11 03:03:18;;;;;;;69.90;20.57;;;-0.10;99.90;;;;;;5087546;28;20407;-75
2022/12/11 03:05:45;;;;;;;60.90;19.70;;;-0.10;99.90;;;;;;5082392;28;20454;-75
2022/12/11 03:08:10;;;;;;;59.85;18.85;;;-0.10;99.90;;;;;;5088244;28;20514;-75
2022/12/11 03:10:36;;;;;;;59.40;19.83;;;-0.10;99.90;;;;;;5090733;28;20855;-75
2022/12/11 03:13:03;;;;;;;55.90;19.45;;;-0.10;99.90;;;;;;5091146;28;20390;-75
2022/12/11 03:15:52;;;;;;;56.80;18.95;;;-0.10;99.90;;;;;;5064633;28;20459;-75
2022/12/11 03:18:40;;;;;;;58.78;19.17;;;0.00;99.90;;;;;;5078058;28;20414;-75
2022/12/11 03:21:33;;;;;;;57.35;19.17;;;-0.10;99.90;;;;;;5070108;28;20419;-75
2022/12/11 03:24:29;;;;;;;60.33;19.80;;;0.00;99.90;;;;;;5090530;28;20405;-75
2022/12/11 03:27:02;;;;;;;59.42;19.48;;;0.00;99.90;;;;;;5089744;28;20410;-75
2022/12/11 03:29:35;;;;;;;63.83;18.80;;;0.00;99.90;;;;;;5090748;28;20661;-75
2022/12/11 03:32:12;;;;;;;63.53;19.38;;;0.00;99.90;;;;;;5090549;28;20746;-75
2022/12/11 03:34:57;;;;;;;68.60;19.67;;;0.00;99.90;;;;;;5090679;28;20412;-75
2022/12/11 03:37:27;;;;;;;64.97;20.48;;;0.00;99.90;;;;;;5090791;28;20425;-75
2022/12/11 03:39:58;;;;;;;65.37;19.73;;;0.00;99.90;;;;;;5090775;28;20408;-75
2022/12/11 03:42:25;;;;;;;66.72;21.15;;;0.00;99.90;;;;;;5076093;28;20439;-75
2022/12/11 03:44:54;;;;;;;61.77;20.07;;;0.00;99.90;;;;;;5082807;28;20400;-75
2022/12/11 03:47:22;;;;;;;69.20;20.83;;;0.10;99.90;;;;;;5084152;28;20405;-75
2022/12/11 03:49:49;;;;;;;60.40;20.10;;;0.00;99.90;;;;;;5077617;28;20486;-75
2022/12/11 03:52:16;;;;;;;66.53;19.27;;;0.10;99.90;;;;;;5087760;28;20494;-74
2022/12/11 03:54:46;;;;;;;67.03;20.65;;;0.10;99.90;;;;;;5089359;28;20398;-75
2022/12/11 03:57:15;;;;;;;67.25;20.08;;;0.10;99.90;;;;;;5088757;28;20414;-75
2022/12/11 03:59:41;;;;;;;59.13;19.77;;;0.10;99.90;;;;;;5089172;28;20409;-75
2022/12/11 04:02:09;;;;;;;68.50;21.07;;;0.10;99.90;;;;;;5070434;28;20407;-75
2022/12/11 04:04:40;;;;;;;65.93;19.95;;;0.10;99.90;;;;;;5083330;28;20410;-75
2022/12/11 04:07:06;;;;;;;57.42;19.20;;;0.10;99.90;;;;;;5077409;28;20775;-75
2022/12/11 04:09:32;;;;;;;57.33;18.50;;;0.10;99.90;;;;;;5076806;28;20433;-75
2022/12/11 04:11:58;;;;;;;63.25;19.40;;;0.10;99.90;;;;;;5089232;28;20398;-75
2022/12/11 04:17:07;;;;;;;59.65;19.27;;;0.10;99.90;;;;;;5081778;28;20920;-75
2022/12/11 04:25:04;;;;;;;60.60;19.65;;;0.20;99.90;;;;;;5078503;28;20479;-75
2022/12/11 04:27:47;;;;;;;64.35;19.92;;;0.20;99.90;;;;;;5069495;28;20402;-75
2022/12/11 04:30:17;;;;;;;60.22;20.05;;;0.20;99.90;;;;;;5089563;28;20509;-75
2022/12/11 04:32:43;;;;;;;61.53;19.80;;;0.20;99.90;;;;;;5085312;28;20399;-75
2022/12/11 04:35:09;;;;;;;59.30;19.40;;;0.20;99.90;;;;;;5083250;28;20764;-75
2022/12/11 04:37:35;;;;;;;55.78;18.75;;;0.20;99.90;;;;;;5083387;28;20486;-75
2022/12/11 04:40:02;;;;;;;56.15;18.98;;;0.20;99.90;;;;;;5083614;28;20419;-75
2022/12/11 04:42:28;;;;;;;60.63;19.38;;;0.20;99.90;;;;;;5081980;28;20402;-75
2022/12/11 04:44:53;;;;;;;59.47;19.20;;;0.30;99.90;;;;;;5088914;28;20421;-75
2022/12/11 04:47:19;;;;;;;64.13;19.90;;;0.20;99.90;;;;;;5089376;28;20489;-75
2022/12/11 04:49:45;;;;;;;64.73;19.37;;;0.30;99.90;;;;;;5075794;28;20515;-75
2022/12/11 04:52:10;;;;;;;68.32;20.45;;;0.30;99.90;;;;;;5089186;28;20493;-75
2022/12/11 04:54:36;;;;;;;72.15;20.85;;;0.20;99.90;;;;;;5089436;28;20904;-75
2022/12/11 04:57:02;;;;;;;73.10;21.88;;;0.30;99.90;;;;;;5077400;28;20408;-75
2022/12/11 04:59:28;;;;;;;72.40;21.80;;;0.30;99.90;;;;;;5083736;28;20811;-75
2022/12/11 05:01:53;;;;;;;77.28;21.45;;;0.30;99.90;;;;;;5081629;28;20983;-75
2022/12/11 05:04:19;;;;;;;78.43;22.67;;;0.30;99.90;;;;;;5088186;28;20421;-75
2022/12/11 05:06:44;;;;;;;69.73;22.17;;;0.30;99.90;;;;;;5088846;28;20430;-75
2022/12/11 05:09:11;;;;;;;84.10;22.55;;;0.30;99.90;;;;;;5087641;28;20460;-75
2022/12/11 05:11:37;;;;;;;84.47;23.38;;;0.30;99.90;;;;;;5088982;28;20465;-75
2022/12/11 05:14:02;;;;;;;81.43;22.67;;;0.30;99.90;;;;;;5084275;28;20486;-75
2022/12/11 05:16:28;;;;;;;82.45;22.15;;;0.30;99.90;;;;;;5076049;28;20507;-75
2022/12/11 05:18:54;;;;;;;82.17;23.10;;;0.30;99.90;;;;;;5075771;28;20410;-75
2022/12/11 05:21:19;;;;;;;72.03;22.63;;;0.30;99.90;;;;;;5089347;28;20402;-75
2022/12/11 05:23:45;;;;;;;67.70;21.83;;;0.30;99.90;;;;;;5088905;28;20719;-75
2022/12/11 05:26:15;;;;;;;70.40;22.07;;;0.30;99.90;;;;;;5067178;28;20415;-75
2022/12/11 05:28:41;;;;;;;72.03;22.08;;;0.30;99.90;;;;;;5080783;28;20905;-75
2022/12/11 05:31:15;;;;;;;61.60;22.30;;;0.30;99.90;;;;;;5072562;28;20425;-75
2022/12/11 05:33:42;;;;;;;64.15;20.92;;;0.30;99.90;;;;;;5078352;28;20407;-75
2022/12/11 05:36:12;;;;;;;64.10;21.95;;;0.30;99.90;;;;;;5074894;28;20488;-75
2022/12/11 05:38:38;;;;;;;69.32;21.75;;;0.30;99.90;;;;;;5079364;28;20450;-75
2022/12/11 05:41:05;;;;;;;69.03;21.40;;;0.30;99.90;;;;;;5073146;28;21031;-75
2022/12/11 05:43:33;;;;;;;56.92;20.02;;;0.30;99.90;;;;;;5078931;28;20477;-75
2022/12/11 05:46:09;;;;;;;58.05;20.58;;;0.40;99.90;;;;;;5073144;28;20713;-75
2022/12/11 05:48:35;;;;;;;59.25;20.85;;;0.40;99.90;;;;;;5088271;28;20547;-75
2022/12/11 05:51:01;;;;;;;61.88;21.98;;;0.30;99.90;;;;;;5076719;28;20506;-75
2022/12/11 05:53:28;;;;;;;61.53;22.33;;;0.30;99.90;;;;;;5086032;28;20401;-75
2022/12/11 05:55:54;;;;;;;66.90;22.20;;;0.40;99.90;;;;;;5087084;28;20429;-74
2022/12/11 05:58:20;;;;;;;68.63;22.67;;;0.40;99.90;;;;;;5085877;28;20398;-75
2022/12/11 06:00:46;;;;;;;69.97;22.45;;;0.40;99.90;;;;;;5086852;28;20406;-76
2022/12/11 06:03:13;;;;;;;68.73;21.80;;;0.40;99.90;;;;;;5068765;28;20474;-75
2022/12/11 06:05:40;;;;;;;62.35;22.20;;;0.40;99.90;;;;;;5079375;28;20811;-75
2022/12/11 06:08:06;;;;;;;66.50;21.17;;;0.40;99.90;;;;;;5082232;28;20487;-75
2022/12/11 06:10:32;;;;;;;64.82;21.50;;;0.40;99.90;;;;;;5080321;28;20505;-75
2022/12/11 06:12:58;;;;;;;62.10;22.08;;;0.40;99.90;;;;;;5074611;28;20405;-76
2022/12/11 06:15:23;;;;;;;64.18;21.42;;;0.40;99.90;;;;;;5086490;28;20390;-75
2022/12/11 06:17:49;;;;;;;60.83;21.40;;;0.50;99.90;;;;;;5087114;28;20523;-75
2022/12/11 06:20:15;;;;;;;65.00;21.33;;;0.40;99.90;;;;;;5087826;28;20765;-73
2022/12/11 06:22:40;;;;;;;60.13;21.93;;;0.40;99.90;;;;;;5083102;28;20394;-73
2022/12/11 06:25:06;;;;;;;56.70;22.02;;;0.50;99.90;;;;;;5087218;28;20853;-73
2022/12/11 06:27:32;;;;;;;57.45;21.83;;;0.50;99.90;;;;;;5086376;28;20397;-73
2022/12/11 06:29:58;;;;;;;62.28;21.70;;;0.50;99.90;;;;;;5076464;28;20573;-73
2022/12/11 06:32:23;;;;;;;67.67;22.23;;;0.50;99.90;;;;;;5067782;28;20410;-73
2022/12/11 06:34:49;;;;;;;63.70;21.43;;;0.50;99.90;;;;;;5078916;28;20402;-73
2022/12/11 06:37:14;;;;;;;61.20;21.23;;;0.50;99.90;;;;;;5086329;28;20880;-73
2022/12/11 06:39:40;;;;;;;61.80;21.63;;;0.50;99.90;;;;;;5074861;28;20411;-73
2022/12/11 06:42:06;;;;;;;60.70;22.60;;;0.50;99.90;;;;;;5071794;28;20394;-73
2022/12/11 06:44:31;;;;;;;64.63;22.23;;;0.50;99.90;;;;;;5087924;28;20546;-73
2022/12/11 06:46:57;;;;;;;64.30;21.50;;;0.50;99.90;;;;;;5087234;28;20405;-73
2022/12/11 06:49:22;;;;;;;58.07;21.53;;;0.50;99.90;;;;;;5077103;28;20436;-73
2022/12/11 06:51:48;;;;;;;63.77;22.37;;;0.50;99.90;;;;;;5084470;28;20758;-73
2022/12/11 06:54:14;;;;;;;60.83;21.90;;;0.50;99.90;;;;;;5077196;28;20403;-73
2022/12/11 06:56:39;;;;;;;60.47;21.63;;;0.50;99.90;;;;;;5072919;28;20417;-73
2022/12/11 06:59:06;;;;;;;65.20;21.88;;;0.50;99.90;;;;;;5087609;28;20425;-73
2022/12/11 07:01:31;;;;;;;60.92;21.00;;;0.50;99.90;;;;;;5085856;28;20409;-73
2022/12/11 07:03:58;;;;;;;65.95;22.30;;;0.50;99.90;;;;;;5085898;28;20919;-73
2022/12/11 07:06:25;;;;;;;67.80;22.33;;;0.50;99.90;;;;;;5086510;28;20441;-73
2022/12/11 07:08:51;;;;;;;65.63;21.13;;;0.50;99.90;;;;;;5087393;28;20924;-73
2022/12/11 07:11:19;;;;;;;66.15;21.33;;;0.50;99.90;;;;;;5071070;28;20487;-73
2022/12/11 07:13:46;;;;;;;57.60;21.25;;;0.50;99.90;;;;;;5068248;28;20392;-73
2022/12/11 07:16:14;;;;;;;67.00;22.38;;;0.50;99.90;;;;;;5085296;28;20824;-73
2022/12/11 07:18:50;;;;;;;62.37;21.43;;;0.50;99.90;;;;;;5085694;28;20424;-73
2022/12/11 07:21:16;;;;;;;60.03;21.35;;;0.50;99.90;;;;;;5085587;28;20528;-73
2022/12/11 07:23:42;;;;;;;65.40;21.27;;;0.50;99.90;;;;;;5082985;28;21153;-73
2022/12/11 07:26:11;;;;;;;63.00;21.08;;;0.50;99.90;;;;;;5084141;28;20502;-73
2022/12/11 07:28:37;;;;;;;64.45;20.77;;;0.50;99.90;;;;;;5085943;28;20412;-73
2022/12/11 07:31:07;;;;;;;60.95;20.63;;;0.50;99.90;;;;;;5086882;28;20398;-73
2022/12/11 07:33:33;;;;;;;57.80;20.60;;;0.50;99.90;;;;;;5086819;28;20950;-73
2022/12/11 07:36:03;;;;;;;67.47;21.15;;;0.50;99.90;;;;;;5072004;28;20481;-73
2022/12/11 07:38:29;;;;;;;59.10;21.30;;;0.40;99.90;;;;;;5078551;28;20404;-73
2022/12/11 07:40:55;;;;;;;63.90;21.27;;;0.40;99.90;;;;;;5089140;28;21246;-73
2022/12/11 07:43:20;;;;;;;61.25;21.38;;;0.40;99.90;;;;;;5076952;28;20766;-73
2022/12/11 07:45:46;;;;;;;65.65;22.50;;;0.50;99.90;;;;;;5072309;28;20404;-73
2022/12/11 07:48:12;;;;;;;65.77;21.30;;;0.50;99.90;;;;;;5090896;28;20405;-73
2022/12/11 07:50:38;;;;;;;69.65;22.27;;;0.50;99.90;;;;;;5088914;28;20426;-73
2022/12/11 07:53:03;;;;;;;57.53;20.43;;;0.40;99.90;;;;;;5079042;28;20816;-73
2022/12/11 07:55:30;;;;;;;60.55;21.75;;;0.50;99.90;;;;;;5090325;28;20406;-73
2022/12/11 07:57:56;;;;;;;56.22;19.98;;;0.50;99.90;;;;;;5090500;28;20398;-73
2022/12/11 08:00:22;;;;;;;63.10;21.50;;;0.40;99.90;;;;;;5083445;28;20765;-73
2022/12/11 08:02:47;;;;;;;64.97;21.58;;;0.50;99.90;;;;;;5090082;28;20402;-73
2022/12/11 08:05:13;;;;;;;62.90;22.57;;;0.50;99.90;;;;;;5090350;28;20401;-73
2022/12/11 08:07:38;;;;;;;61.17;22.35;;;0.50;99.90;;;;;;5076992;28;20906;-73
2022/12/11 08:10:05;;;;;;;61.00;21.57;;;0.50;99.90;;;;;;5090198;28;20475;-73
2022/12/11 08:12:30;;;;;;;57.17;19.95;;;0.50;99.90;;;;;;5090367;28;20398;-73
2022/12/11 08:14:56;;;;;;;55.57;21.07;;;0.50;99.90;;;;;;5082693;28;20414;-73
2022/12/11 08:17:21;;;;;;;57.70;21.15;;;0.50;99.90;;;;;;5083991;28;20402;-73
2022/12/11 08:19:47;;;;;;;58.50;20.63;;;0.50;99.90;;;;;;5089957;28;20433;-73
2022/12/11 08:22:13;;;;;;;50.88;20.25;;;0.50;99.90;;;;;;5089707;28;20501;-73
2022/12/11 08:24:39;;;;;;;50.60;20.05;;;0.50;99.90;;;;;;5090163;28;20451;-73
2022/12/11 08:27:05;;;;;;;49.65;18.92;;;0.50;99.90;;;;;;5076536;28;20395;-73
2022/12/11 08:29:31;;;;;;;52.97;19.10;;;0.50;99.90;;;;;;5082643;28;20432;-73
2022/12/11 08:31:57;;;;;;;54.25;20.70;;;0.50;99.90;;;;;;5083209;28;20402;-73
2022/12/11 08:34:22;;;;;;;55.00;20.07;;;0.50;99.90;;;;;;5089528;28;20482;-73
2022/12/11 08:36:48;;;;;;;48.63;19.07;;;0.50;99.90;;;;;;5089344;28;20537;-73
2022/12/11 08:39:14;;;;;;;54.38;19.67;;;0.50;99.90;;;;;;5083171;28;20425;-73
2022/12/11 08:41:39;;;;;;;59.07;21.10;;;0.60;99.90;;;;;;5069656;28;20816;-73
2022/12/11 08:44:11;;;;;;;52.13;19.20;;;0.50;99.90;;;;;;5067722;28;20421;-73
2022/12/11 08:46:36;;;;;;;47.97;18.43;;;0.50;99.90;;;;;;5078985;28;20781;-73
2022/12/11 08:49:03;;;;;;;50.10;19.17;;;0.60;99.90;;;;;;5073051;28;20491;-73
2022/12/11 08:51:29;;;;;;;49.50;18.67;;;0.60;99.90;;;;;;5071445;28;20416;-73
2022/12/11 08:53:57;;;;;;;50.03;18.80;;;0.60;99.90;;;;;;5073008;28;20475;-74
2022/12/11 08:56:23;;;;;;;50.83;19.77;;;0.60;99.90;;;;;;5070969;28;20453;-74
2022/12/11 08:58:50;;;;;;;43.78;17.60;;;0.70;99.90;;;;;;5074616;28;20427;-74
2022/12/11 09:01:21;;;;;;;48.25;17.95;;;0.60;99.90;;;;;;5070938;28;21013;-74
2022/12/11 09:03:48;;;;;;;46.58;17.58;;;0.60;99.90;;;;;;5070271;28;20501;-74
2022/12/11 09:06:17;;;;;;;45.13;17.63;;;0.70;99.90;;;;;;5074095;28;20446;-74
2022/12/11 09:08:44;;;;;;;47.17;17.40;;;0.70;99.90;;;;;;5068079;28;20448;-74
2022/12/11 09:11:13;;;;;;;45.92;18.60;;;0.70;99.90;;;;;;5075108;28;20443;-74
2022/12/11 09:13:39;;;;;;;44.13;16.63;;;0.70;99.90;;;;;;5070698;28;20415;-74
2022/12/11 09:16:11;;;;;;;49.50;17.95;;;0.70;99.90;;;;;;5078392;28;20410;-74
2022/12/11 09:18:38;;;;;;;45.78;17.55;;;0.70;99.90;;;;;;5078085;28;21163;-75
2022/12/11 09:21:08;;;;;;;44.07;17.67;;;0.70;99.90;;;;;;5073371;28;20897;-75
2022/12/11 09:23:34;;;;;;;44.67;17.60;;;0.70;99.90;;;;;;5076511;28;20470;-75
2022/12/11 09:26:04;;;;;;;46.30;17.50;;;0.70;99.90;;;;;;5082475;28;20420;-75
2022/12/11 09:28:30;;;;;;;48.50;19.17;;;0.70;99.90;;;;;;5079309;28;20418;-75
2022/12/11 09:30:56;;;;;;;47.60;17.85;;;0.70;99.90;;;;;;5067531;28;20464;-75
2022/12/11 09:33:22;;;;;;;43.83;16.13;;;0.70;99.90;;;;;;5082583;28;20446;-75
2022/12/11 09:35:59;;;;;;;49.30;17.77;;;0.70;99.90;;;;;;5073536;28;20406;-75
2022/12/11 09:38:25;;;;;;;42.83;16.55;;;0.70;99.90;;;;;;5081072;28;20472;-75
2022/12/11 09:40:51;;;;;;;44.50;17.88;;;0.70;99.90;;;;;;5083557;28;20811;-75
2022/12/11 09:43:40;;;;;;;41.45;16.77;;;0.70;99.90;;;;;;5079496;28;20831;-75
2022/12/11 09:46:11;;;;;;;41.05;17.27;;;0.70;99.90;;;;;;5058614;28;20535;-75
2022/12/11 09:48:40;;;;;;;44.00;17.33;;;0.80;99.90;;;;;;5083122;28;20398;-75
2022/12/11 09:51:18;;;;;;;44.47;16.75;;;0.80;99.90;;;;;;5086324;28;20415;-75
2022/12/11 09:53:44;;;;;;;44.90;17.17;;;0.80;99.90;;;;;;5075035;28;20436;-75
2022/12/11 09:56:34;;;;;;;43.70;16.73;;;0.80;99.90;;;;;;5077669;28;20463;-75
2022/12/11 09:59:28;;;;;;;43.07;17.70;;;0.80;99.90;;;;;;5084475;28;20406;-75
2022/12/11 10:02:04;;;;;;;46.97;17.83;;;0.80;99.90;;;;;;5077571;28;20432;-75
2022/12/11 10:05:25;;;;;;;49.35;17.02;;;0.80;99.90;;;;;;5087805;28;20403;-75
2022/12/11 10:08:02;;;;;;;45.85;16.95;;;0.80;99.90;;;;;;5066817;28;20915;-75
2022/12/11 10:10:50;;;;;;;46.30;17.33;;;0.80;99.90;;;;;;5074320;28;20445;-75
2022/12/11 10:13:53;;;;;;;40.10;16.45;;;0.80;99.90;;;;;;5080009;28;20457;-75
2022/12/11 10:16:34;;;;;;;45.77;18.07;;;0.80;99.90;;;;;;5086215;28;20414;-74
2022/12/11 10:19:00;;;;;;;49.80;17.80;;;0.80;99.90;;;;;;5081250;28;20410;-75
2022/12/11 10:21:28;;;;;;;51.60;18.33;;;0.80;99.90;;;;;;5086455;28;20432;-75
2022/12/11 10:24:00;;;;;;;50.50;19.38;;;0.80;99.90;;;;;;5084357;28;20421;-75
2022/12/11 10:26:27;;;;;;;48.78;19.38;;;0.80;99.90;;;;;;5082065;28;20408;-75
2022/12/11 10:28:58;;;;;;;46.60;18.38;;;0.90;99.90;;;;;;5083149;28;21032;-74
2022/12/11 10:31:42;;;;;;;47.88;19.35;;;0.90;99.90;;;;;;5089414;28;20493;-75
2022/12/11 10:34:12;;;;;;;48.58;18.65;;;0.90;99.90;;;;;;5078277;28;20434;-75
2022/12/11 10:36:40;;;;;;;48.95;19.10;;;0.90;99.90;;;;;;5086460;28;20406;-75
2022/12/11 10:39:19;;;;;;;50.65;19.20;;;0.90;99.90;;;;;;5078235;28;20437;-75
2022/12/11 10:41:52;;;;;;;49.72;18.30;;;0.90;99.90;;;;;;5071373;28;20423;-75
2022/12/11 10:44:21;;;;;;;52.00;19.70;;;0.90;99.90;;;;;;5081065;28;20418;-75
2022/12/11 10:46:59;;;;;;;55.25;19.27;;;0.90;99.90;;;;;;5085312;28;20409;-75
2022/12/11 10:49:28;;;;;;;51.63;20.07;;;0.90;99.90;;;;;;5079816;28;20503;-75
2022/12/11 10:51:55;;;;;;;52.20;20.27;;;0.90;99.90;;;;;;5059847;28;20428;-75
2022/12/11 10:54:28;;;;;;;52.10;20.30;;;0.90;99.90;;;;;;5078686;28;20563;-74
2022/12/11 10:56:54;;;;;;;54.45;20.02;;;1.00;99.90;;;;;;5086987;28;20445;-74
2022/12/11 10:59:29;;;;;;;57.10;20.38;;;1.00;99.90;;;;;;5075110;28;20553;-74
2022/12/11 11:01:56;;;;;;;54.30;20.23;;;1.00;99.90;;;;;;5079676;28;20414;-75
2022/12/11 11:04:37;;;;;;;54.85;20.88;;;1.00;99.90;;;;;;5070283;28;20937;-75
2022/12/11 11:07:25;;;;;;;54.43;20.87;;;1.00;99.90;;;;;;5058425;28;20406;-71
2022/12/11 11:10:12;;;;;;;55.72;21.38;;;1.10;99.90;;;;;;5077420;28;20438;-74
2022/12/11 11:12:41;;;;;;;54.15;20.98;;;1.10;99.90;;;;;;5087617;28;20429;-74
2022/12/11 11:15:14;;;;;;;56.83;20.50;;;1.10;99.90;;;;;;5080248;28;20409;-74
2022/12/11 11:17:47;;;;;;;54.30;21.13;;;1.10;99.90;;;;;;5089705;28;20512;-74
2022/12/11 11:20:19;;;;;;;53.63;19.70;;;1.10;99.90;;;;;;5091316;28;20402;-74
2022/12/11 11:22:54;;;;;;;54.10;20.90;;;1.10;99.90;;;;;;5080002;28;20402;-74
2022/12/11 11:25:22;;;;;;;55.67;20.77;;;1.10;99.90;;;;;;5080788;28;20477;-74
2022/12/11 11:28:00;;;;;;;54.13;21.17;;;1.10;99.90;;;;;;5090842;28;20912;-74
2022/12/11 11:30:30;;;;;;;53.63;19.98;;;1.10;99.90;;;;;;5088425;28;20429;-74
2022/12/11 11:33:01;;;;;;;55.92;20.80;;;1.10;99.90;;;;;;5090972;28;20776;-74
2022/12/11 11:35:29;;;;;;;52.15;20.60;;;1.10;99.90;;;;;;5091083;28;20876;-74
2022/12/11 11:38:17;;;;;;;55.60;21.30;;;1.10;99.90;;;;;;5089939;28;20410;-74
2022/12/11 11:41:02;;;;;;;52.95;20.42;;;1.10;99.90;;;;;;5071324;28;20435;-74
2022/12/11 11:43:41;;;;;;;53.10;20.53;;;1.10;99.90;;;;;;5086252;28;20481;-74
2022/12/11 11:46:16;;;;;;;52.25;20.33;;;1.10;99.90;;;;;;5080024;28;21017;-74
2022/12/11 11:49:19;;;;;;;56.15;21.48;;;1.10;99.90;;;;;;5069466;28;20415;-74
2022/12/11 11:52:24;;;;;;;55.35;22.77;;;1.10;99.90;;;;;;5073555;28;20414;-74
2022/12/11 11:55:08;;;;;;;51.95;20.20;;;1.20;99.90;;;;;;5087400;28;20407;-74
2022/12/11 11:57:54;;;;;;;51.38;20.90;;;1.10;99.90;;;;;;5089318;28;20441;-74
2022/12/11 12:00:27;;;;;;;52.03;21.03;;;1.10;99.90;;;;;;5088708;28;20394;-74
2022/12/11 12:02:59;;;;;;;49.25;21.05;;;1.10;99.90;;;;;;5086921;28;20410;-74
2022/12/11 12:05:36;;;;;;;55.07;21.37;;;1.10;99.90;;;;;;5085091;28;20406;-74
2022/12/11 12:08:13;;;;;;;54.22;21.30;;;1.10;99.90;;;;;;5086471;28;20459;-74
2022/12/11 12:10:46;;;;;;;55.15;21.45;;;1.10;99.90;;;;;;5077963;28;20426;-74
2022/12/11 12:13:29;;;;;;;54.80;20.55;;;1.10;99.90;;;;;;5082095;28;20499;-74
2022/12/11 12:16:00;;;;;;;56.45;22.17;;;1.10;99.90;;;;;;5088193;28;20398;-74
2022/12/11 12:19:03;;;;;;;56.47;21.88;;;1.10;99.90;;;;;;5074494;28;20404;-74
2022/12/11 12:21:37;;;;;;;50.25;20.38;;;1.10;99.90;;;;;;5085749;28;20406;-74
2022/12/11 12:24:18;;;;;;;53.70;20.65;;;1.10;99.90;;;;;;5088737;28;20410;-74
2022/12/11 12:26:50;;;;;;;53.25;22.05;;;1.10;99.90;;;;;;5080517;28;20414;-74
2022/12/11 12:29:39;;;;;;;54.88;22.08;;;1.20;99.90;;;;;;5081599;28;20796;-74
2022/12/11 12:32:24;;;;;;;51.53;21.58;;;1.20;99.90;;;;;;5088253;28;20493;-74
2022/12/11 12:35:31;;;;;;;49.13;20.52;;;1.20;99.90;;;;;;5077530;28;20401;-74
2022/12/11 12:38:43;;;;;;;55.40;21.83;;;1.20;99.90;;;;;;5069862;28;20439;-74
2022/12/11 12:41:47;;;;;;;53.47;21.55;;;1.20;99.90;;;;;;5065668;28;20421;-74
2022/12/11 12:44:15;;;;;;;48.88;21.17;;;1.20;99.90;;;;;;5070079;28;20411;-74
2022/12/11 12:47:02;;;;;;;55.92;21.85;;;1.30;99.90;;;;;;5073276;28;21254;-74
2022/12/11 12:49:37;;;;;;;55.65;21.70;;;1.30;99.90;;;;;;5079062;28;20426;-74
2022/12/11 12:52:05;;;;;;;52.28;20.75;;;1.30;99.90;;;;;;5067076;28;21008;-74
2022/12/11 12:54:32;;;;;;;48.85;20.77;;;1.30;99.90;;;;;;5080896;28;20425;-74
2022/12/11 12:57:01;;;;;;;51.95;21.67;;;1.30;99.90;;;;;;5089130;28;20402;-74
2022/12/11 12:59:27;;;;;;;56.08;21.52;;;1.30;99.90;;;;;;5088583;28;20755;-74